Alma, MI (48801)

12:51 PM EST on January 24, 2017 (GMT -0500)
Alma | | Change Station

Elev 777 ft 43.38 °N, 84.69 °W | Updated 4 seconds ago

Overcast
Overcast
38.5 °F
Feels Like 36 °F
N
3.4
Wind Variable Wind from West
Gusts 6.7 mph

Today
High -- | Low -- °F
--% Chance of Precip.
Yesterday
High -- | Low -- °F
Precip. -- in
Pressure 29.80 in
Visibility 10.0 miles
Clouds Mostly Cloudy 1000 ft
Overcast 1800 ft
Windchill 36 °F
Dew Point 38 °F
Humidity 97%
Rainfall 0.09 in
Snow Depth Not available.
8:01 AM 5:40 PM
Waning Crescent, 10% visible
METAR KAMN 241735Z AUTO 27011G18KT 10SM BKN010 OVC018 04/02 A2980 RMK AO2 T00390024
Pressure 29.80 in
Visibility 10.0 miles
Clouds Mostly Cloudy 1000 ft
Overcast 1800 ft
Windchill 36 °F
Dew Point 38 °F
Humidity 97%
Rainfall 0.09 in
Snow Depth Not available.
8:01 AM 5:40 PM
Waning Crescent, 10% visible
METAR KAMN 241735Z AUTO 27011G18KT 10SM BKN010 OVC018 04/02 A2980 RMK AO2 T00390024

Get Your Daily Forecast Email!

Thanks for signing up!

Be on the lookout for a verification email in your inbox.

You'll start receiving the daily forecast at 8 AM.

×

10-Day Weather Forecast

Almanac

Astronomy

Jan. 24, 2017 Rise Set
Actual Time
Civil Twilight
Nautical Twilight
Astronomical Twilight
Moon
Length of Visible Light
Length of Day
Tomorrow will be .
, % of the Moon is Illuminated

Today's Extremes

State Highs State Lows

Community

WunderPhotos

Upload Photos

1,962,540 photos uploaded!

WunderBlog® & News

Nearby

Air Quality

  Air Quality AQ Index Pollutant
Not available.

Snow Depth

Station Depth Elevation

Earthquake Activity

City Distance Mag. Time & Date
Minimum magnitude displayed is 2.5.

Coastal Water Temperatures

Place Temperature

Stations

Nearby Weather Stations

Station Location Temp. Windchill Dew Point Humidity Wind Precip. Elev Updated Type
                   

Watches & Warnings

There are currently no watches in effect.